Rodney, IA (51051)

11:35 AM CDT on July 28, 2015 (GMT -0500)
The Danbury Review | | Change Station
CLOSE
Current Station
Personal Weather Station
Location: Danbury, IA
Elevation: 1162 ft
Nearby Weather Stations
Active Advisory: Flood Warning Active Notice: Local Storm Report

Elev 1162 ft 42.24 °N, 95.72 °W | Updated 7 seconds ago

Thunderstorm
Thunderstorm
70.4 °F
Feels Like 70.4 °F
N
0.0
Wind Variable Wind from South
Gusts 4.0 mph

Today
High -- | Low -- °F
--% Chance of Precip.
Yesterday
High -- | Low -- °F
Precip. -- in
6:12 AM 8:47 PM
Waxing Gibbous, 90% visible
Pressure 29.82 in
Visibility 10.0 miles
Clouds Few 1000 ft
Few 4400 ft
Dew Point 69 °F
Humidity 95%
Rainfall 2.94 in
Snow Depth Not available.
UV 7 out of 12
Pollen 4.80 out of 12
Air Quality Not available.
Flu Activity Not available.
METAR KSUX 281552Z 14006KT 10SM FEW010 FEW044 23/21 A2984 RMK AO2 LTG DSNT SE AND S SLP098 T02330206

More Conditions Fewer Conditions

Pressure 29.82 in
Visibility 10.0 miles
Clouds Few 1000 ft
Few 4400 ft
Dew Point 69 °F
Humidity 95%
Rainfall 2.94 in
Snow Depth Not available.
UV 7 out of 12
Pollen 4.80 out of 12
Air Quality Not available.
Flu Activity Not available.
METAR KSUX 281552Z 14006KT 10SM FEW010 FEW044 23/21 A2984 RMK AO2 LTG DSNT SE AND S SLP098 T02330206

More Conditions Fewer Conditions

10-Day Weather Forecast

×

Almanac

Astronomy

Jul. 28, 2015 Rise Set
Actual Time
Civil Twilight
Nautical Twilight
Astronomical Twilight
Moon
Length of Visible Light
Length of Day
Tomorrow will be .
, % of the Moon is Illuminated

Today's Extremes

State Highs State Lows

Community

WunderPhotos

Upload Photos

1,841,886 photos uploaded!

WunderBlogs® & News

Nearby

Air Quality

  Air Quality AQ Index Pollutant
Not available.

Snow Depth

Station Depth Elevation

Earthquake Activity

City Distance Mag. Time & Date
Minimum magnitude displayed is 2.5.

Coastal Water Temperatures

Place Temperature

Stations

Nearby Weather Stations

Station Location Temp. Windchill Dew Point Humidity Wind Precip. Elev Updated Type
                   
Flood Warning
Statement as of 11:32 AM CDT on July 28, 2015

The Flood Warning continues for
the West Fork ditch near Hornick.
* From this afternoon to late Wednesday night.
* At 11am Tuesday the stage was 18.0 feet.
* Flood stage is 20.0 feet.
* Forecast... rise above flood stage by 3 PM Tuesday and crest near
21.0 feet by 7 PM Tuesday.The river will fall below flood stage
early on Wednesday July 29.
* At stages near 22.0 feet... all agricultural land immediately
adjacent to The Ditch will be flooded and the communities of
Hornick and Holly Springs will have flood problems if the levees
fail.


Lat... Lon 4234 9613 4234 9607 4227 9606 4221 9609
          4221 9614 4227 9611


Location flood latest observed maximum forecast
         stage stage time stage time

Little Sioux river